Time;durP1;ratioP1;P1;durP2;ratioP2;P2;SDS_P1;SDS_P2;PMS_P1;PMS_P2;Temp;Humidity;BMP_temperature;BMP_pressure;BME280_temperature;BME280_humidity;BME280_pressure;Samples;Min_cycle;Max_cycle;Signal;HPM_P1;HPM_P2
2022/06/27 00:00:37;;;;;;;;;;;;;;;;;;5073315;28;874;-74
2022/06/27 00:03:03;;;;;;;;;;;;;;;;;;5072826;28;1060;-74
2022/06/27 00:05:29;;;;;;;;;;;;;;;;;;5072942;28;1977;-74
2022/06/27 00:07:57;;;;;;;;;;;;;;;;;;5071692;28;1407;-74
2022/06/27 00:10:23;;;;;;;;;;;;;;;;;;5072921;28;972;-74
2022/06/27 00:12:49;;;;;;;;;;;;;;;;;;5072577;28;897;-73
2022/06/27 00:15:15;;;;;;;;;;;;;;;;;;5072922;28;680;-74
2022/06/27 00:17:42;;;;;;;;;;;;;;;;;;5072114;28;1383;-74
2022/06/27 00:20:08;;;;;;;;;;;;;;;;;;5072440;28;1066;-74
2022/06/27 00:22:34;;;;;;;;;;;;;;;;;;5072887;28;993;-74
2022/06/27 00:25:02;;;;;;;;;;;;;;;;;;5072605;28;1910;-73
2022/06/27 00:27:29;;;;;;;;;;;;;;;;;;5072087;28;1325;-74
2022/06/27 00:29:55;;;;;;;;;;;;;;;;;;5072202;28;1123;-74
2022/06/27 00:32:23;;;;;;;;;;;;;;;;;;5072767;28;937;-74
2022/06/27 00:34:49;;;;;;;;;;;;;;;;;;5054646;28;1475;-74
2022/06/27 00:37:16;;;;;;;;;;;;;;;;;;5071504;28;1363;-74
2022/06/27 00:39:43;;;;;;;;;;;;;;;;;;5072161;28;849;-74
2022/06/27 00:42:11;;;;;;;;;;;;;;;;;;5054109;28;1195;-74
2022/06/27 00:44:38;;;;;;;;;;;;;;;;;;5054375;28;1926;-74
2022/06/27 00:47:04;;;;;;;;;;;;;;;;;;5053346;28;1387;-74
2022/06/27 00:49:30;;;;;;;;;;;;;;;;;;5072329;28;1051;-74
2022/06/27 00:51:57;;;;;;;;;;;;;;;;;;5072247;28;1060;-74
2022/06/27 00:54:23;;;;;;;;;;;;;;;;;;5072253;28;905;-74
2022/06/27 00:56:49;;;;;;;;;;;;;;;;;;5053384;28;1249;-73
2022/06/27 00:59:17;;;;;;;;;;;;;;;;;;5053607;28;1138;-73
2022/06/27 01:01:43;;;;;;;;;;;;;;;;;;5071557;28;1013;-74
2022/06/27 01:04:09;;;;;;;;;;;;;;;;;;5053690;28;1969;-74
2022/06/27 01:06:35;;;;;;;;;;;;;;;;;;5071014;28;1355;-74
2022/06/27 01:09:02;;;;;;;;;;;;;;;;;;5071315;28;894;-74
2022/06/27 01:11:28;;;;;;;;;;;;;;;;;;5054045;28;1648;-74
2022/06/27 01:13:54;;;;;;;;;;;;;;;;;;5053011;28;1414;-73
2022/06/27 01:16:23;;;;;;;;;;;;;;;;;;5071011;28;1565;-74
2022/06/27 01:18:49;;;;;;;;;;;;;;;;;;5053209;28;1133;-73
2022/06/27 01:21:20;;;;;;;;;;;;;;;;;;5053687;28;1440;-72
2022/06/27 01:23:48;;;;;;;;;;;;;;;;;;5053465;28;1967;-74
2022/06/27 01:26:14;;;;;;;;;;;;;;;;;;5052567;28;1310;-74
2022/06/27 01:28:41;;;;;;;;;;;;;;;;;;5053536;28;1191;-74
2022/06/27 01:31:08;;;;;;;;;;;;;;;;;;5071243;28;775;-73
2022/06/27 01:33:34;;;;;;;;;;;;;;;;;;5052983;28;1726;-73
2022/06/27 01:38:46;;;;;;;;;;;;;;;;;;5052725;28;1355;-74
2022/06/27 01:41:13;;;;;;;;;;;;;;;;;;5053332;28;1439;-74
2022/06/27 01:43:40;;;;;;;;;;;;;;;;;;5053088;28;1331;-73
2022/06/27 01:46:10;;;;;;;;;;;;;;;;;;5051726;28;1910;-73
2022/06/27 01:48:37;;;;;;;;;;;;;;;;;;5053066;28;1267;-74
2022/06/27 01:51:03;;;;;;;;;;;;;;;;;;5070644;28;819;-74
2022/06/27 01:53:29;;;;;;;;;;;;;;;;;;5052941;28;1677;-74
2022/06/27 01:55:56;;;;;;;;;;;;;;;;;;5070698;28;1293;-73
2022/06/27 01:58:23;;;;;;;;;;;;;;;;;;5052254;28;956;-73
2022/06/27 02:00:50;;;;;;;;;;;;;;;;;;5053027;28;1345;-74
2022/06/27 02:03:17;;;;;;;;;;;;;;;;;;5053030;28;1353;-73
2022/06/27 02:05:45;;;;;;;;;;;;;;;;;;5053111;28;1914;-74
2022/06/27 02:08:11;;;;;;;;;;;;;;;;;;5069901;28;924;-74
2022/06/27 02:10:38;;;;;;;;;;;;;;;;;;5052289;28;1428;-74
2022/06/27 02:13:05;;;;;;;;;;;;;;;;;;5052721;28;1569;-74
2022/06/27 02:15:32;;;;;;;;;;;;;;;;;;5070997;28;996;-74
2022/06/27 02:17:59;;;;;;;;;;;;;;;;;;5051907;28;1069;-74
2022/06/27 02:20:27;;;;;;;;;;;;;;;;;;5052834;28;1618;-73
2022/06/27 02:22:53;;;;;;;;;;;;;;;;;;5052653;28;1708;-74
2022/06/27 02:25:19;;;;;;;;;;;;;;;;;;5052229;28;1967;-74
2022/06/27 02:27:45;;;;;;;;;;;;;;;;;;5055581;28;1261;-74
2022/06/27 02:30:12;;;;;;;;;;;;;;;;;;5054731;28;1444;-74
2022/06/27 02:32:39;;;;;;;;;;;;;;;;;;5071811;28;1091;-74
2022/06/27 02:35:06;;;;;;;;;;;;;;;;;;5052656;28;1103;-74
2022/06/27 02:37:32;;;;;;;;;;;;;;;;;;5051663;28;1374;-73
2022/06/27 02:39:59;;;;;;;;;;;;;;;;;;5052295;28;1693;-74
2022/06/27 02:42:25;;;;;;;;;;;;;;;;;;5070377;28;814;-73
2022/06/27 02:44:51;;;;;;;;;;;;;;;;;;5070521;28;1914;-74
2022/06/27 02:47:19;;;;;;;;;;;;;;;;;;5051284;28;1313;-74
2022/06/27 02:49:47;;;;;;;;;;;;;;;;;;5052302;28;1344;-74
2022/06/27 02:52:14;;;;;;;;;;;;;;;;;;5052208;28;915;-74
2022/06/27 02:54:48;;;;;;;;;;;;;;;;;;5052309;28;1343;-73
2022/06/27 02:57:39;;;;;;;;;;;;;;;;;;5058550;28;1310;-74
2022/06/27 03:00:07;;;;;;;;;;;;;;;;;;5051844;28;1418;-74
2022/06/27 03:02:35;;;;;;;;;;;;;;;;;;5052289;28;1595;-75
2022/06/27 03:05:21;;;;;;;;;;;;;;;;;;5070019;28;1910;-75
2022/06/27 03:07:47;;;;;;;;;;;;;;;;;;5051193;28;1413;-75
2022/06/27 03:10:14;;;;;;;;;;;;;;;;;;5052005;28;1474;-74
2022/06/27 03:12:44;;;;;;;;;;;;;;;;;;5052257;28;1292;-74
2022/06/27 03:15:11;;;;;;;;;;;;;;;;;;5047509;28;2233;-73
2022/06/27 03:17:37;;;;;;;;;;;;;;;;;;5069150;28;1354;-75
2022/06/27 03:20:34;;;;;;;;;;;;;;;;;;5050819;28;1101;-75
2022/06/27 03:23:11;;;;;;;;;;;;;;;;;;5051714;28;1598;-75
2022/06/27 03:25:43;;;;;;;;;;;;;;;;;;5051955;28;2350;-75
2022/06/27 03:28:10;;;;;;;;;;;;;;;;;;5051171;28;1169;-75
2022/06/27 03:30:36;;;;;;;;;;;;;;;;;;5051967;28;1550;-75
2022/06/27 03:33:03;;;;;;;;;;;;;;;;;;5052118;28;1676;-73
2022/06/27 03:35:35;;;;;;;;;;;;;;;;;;5053723;28;1698;-75
2022/06/27 03:38:02;;;;;;;;;;;;;;;;;;5084145;28;870;-74
2022/06/27 03:40:29;;;;;;;;;;;;;;;;;;5057188;28;1339;-75
2022/06/27 03:42:57;;;;;;;;;;;;;;;;;;5055282;28;1499;-75
2022/06/27 03:45:23;;;;;;;;;;;;;;;;;;5055304;28;1906;-75
2022/06/27 03:47:50;;;;;;;;;;;;;;;;;;5054755;28;1420;-75
2022/06/27 03:50:31;;;;;;;;;;;;;;;;;;5072956;28;670;-74
2022/06/27 03:52:58;;;;;;;;;;;;;;;;;;5055300;28;1167;-75
2022/06/27 03:55:25;;;;;;;;;;;;;;;;;;5054816;28;1542;-75
2022/06/27 03:57:52;;;;;;;;;;;;;;;;;;5054108;28;1393;-75
2022/06/27 04:00:19;;;;;;;;;;;;;;;;;;5072608;28;1091;-75
2022/06/27 04:02:49;;;;;;;;;;;;;;;;;;5055096;28;1598;-75
2022/06/27 04:05:40;;;;;;;;;;;;;;;;;;5055077;28;1910;-75
2022/06/27 04:08:08;;;;;;;;;;;;;;;;;;5054158;28;1303;-75
2022/06/27 04:10:37;;;;;;;;;;;;;;;;;;5054909;28;1620;-75
2022/06/27 04:13:04;;;;;;;;;;;;;;;;;;5055002;28;1156;-75
2022/06/27 04:15:53;;;;;;;;;;;;;;;;;;5072836;28;1250;-75
2022/06/27 04:18:45;;;;;;;;;;;;;;;;;;5072303;28;1249;-75
2022/06/27 04:21:34;;;;;;;;;;;;;;;;;;5072545;28;1216;-75
2022/06/27 04:24:13;;;;;;;;;;;;;;;;;;5054745;28;1447;-75
2022/06/27 04:26:45;;;;;;;;;;;;;;;;;;5053401;28;1969;-75
2022/06/27 04:29:12;;;;;;;;;;;;;;;;;;5053646;28;1541;-74
2022/06/27 04:31:39;;;;;;;;;;;;;;;;;;5054396;28;1182;-75
2022/06/27 04:34:05;;;;;;;;;;;;;;;;;;5054554;28;1119;-74
2022/06/27 04:36:37;;;;;;;;;;;;;;;;;;5053413;28;1330;-75
2022/06/27 04:39:05;;;;;;;;;;;;;;;;;;5028944;28;1430;-72
2022/06/27 04:41:50;;;;;;;;;;;;;;;;;;4973976;28;1149;-71
2022/06/27 04:44:18;;;;;;;;;;;;;;;;;;4975082;28;1449;-73
2022/06/27 04:46:47;;;;;;;;;;;;;;;;;;4973744;28;2102;-72
2022/06/27 04:49:46;;;;;;;;;;;;;;;;;;4959017;28;1054;-72
2022/06/27 04:52:15;;;;;;;;;;;;;;;;;;4974649;28;1417;-72
2022/06/27 04:54:43;;;;;;;;;;;;;;;;;;4980966;28;1330;-75
2022/06/27 04:57:12;;;;;;;;;;;;;;;;;;4994968;28;1373;-72
2022/06/27 04:59:39;;;;;;;;;;;;;;;;;;4975549;28;1199;-71
2022/06/27 05:02:31;;;;;;;;;;;;;;;;;;4975369;28;1568;-71
2022/06/27 05:04:58;;;;;;;;;;;;;;;;;;4993399;28;1950;-72
2022/06/27 05:07:25;;;;;;;;;;;;;;;;;;4980750;28;1476;-72
2022/06/27 05:09:52;;;;;;;;;;;;;;;;;;4974957;28;1350;-73
2022/06/27 05:12:20;;;;;;;;;;;;;;;;;;5011845;28;1326;-74
2022/06/27 05:14:47;;;;;;;;;;;;;;;;;;5044570;28;1257;-74
2022/06/27 05:17:13;;;;;;;;;;;;;;;;;;5054969;28;1669;-74
2022/06/27 05:19:40;;;;;;;;;;;;;;;;;;5041799;28;1450;-73
2022/06/27 05:22:07;;;;;;;;;;;;;;;;;;5033729;28;1168;-74
2022/06/27 05:24:34;;;;;;;;;;;;;;;;;;5044798;28;1335;-75
2022/06/27 05:27:00;;;;;;;;;;;;;;;;;;5034210;28;1914;-75
2022/06/27 05:29:28;;;;;;;;;;;;;;;;;;5056782;28;1350;-75
2022/06/27 05:31:54;;;;;;;;;;;;;;;;;;5044907;28;1197;-75
2022/06/27 05:34:24;;;;;;;;;;;;;;;;;;5058956;28;1539;-73
2022/06/27 05:36:50;;;;;;;;;;;;;;;;;;5046024;22;2250;-73
2022/06/27 05:39:17;;;;;;;;;;;;;;;;;;5036005;28;2236;-73
2022/06/27 05:41:45;;;;;;;;;;;;;;;;;;5026091;28;1580;-72
2022/06/27 05:44:16;;;;;;;;;;;;;;;;;;5032008;28;1531;-73
2022/06/27 05:46:44;;;;;;;;;;;;;;;;;;5048779;28;1979;-72
2022/06/27 05:49:30;;;;;;;;;;;;;;;;;;5059947;28;1467;-72
2022/06/27 05:51:57;;;;;;;;;;;;;;;;;;5060547;28;1450;-72
2022/06/27 05:54:25;;;;;;;;;;;;;;;;;;5057438;28;2528;-72
2022/06/27 05:56:51;;;;;;;;;;;;;;;;;;5054255;28;1508;-72
2022/06/27 05:59:19;;;;;;;;;;;;;;;;;;5053808;28;1488;-73
2022/06/27 06:01:47;;;;;;;;;;;;;;;;;;5043226;28;1530;-74
2022/06/27 06:04:14;;;;;;;;;;;;;;;;;;5038791;28;1435;-73
2022/06/27 06:06:43;;;;;;;;;;;;;;;;;;5045994;28;1971;-73
2022/06/27 06:09:10;;;;;;;;;;;;;;;;;;5051463;28;1488;-74
2022/06/27 06:11:38;;;;;;;;;;;;;;;;;;5050035;28;1451;-73
2022/06/27 06:14:04;;;;;;;;;;;;;;;;;;5069134;28;1439;-72
2022/06/27 06:16:31;;;;;;;;;;;;;;;;;;5055127;28;1447;-72
2022/06/27 06:18:59;;;;;;;;;;;;;;;;;;5052272;28;1439;-73
2022/06/27 06:21:25;;;;;;;;;;;;;;;;;;5051594;28;1184;-73
2022/06/27 06:23:52;;;;;;;;;;;;;;;;;;5041393;28;1440;-73
2022/06/27 06:26:19;;;;;;;;;;;;;;;;;;5049036;28;1927;-73
2022/06/27 06:28:45;;;;;;;;;;;;;;;;;;5052325;28;1340;-73
2022/06/27 06:31:21;;;;;;;;;;;;;;;;;;5050057;28;1655;-74
2022/06/27 06:33:48;;;;;;;;;;;;;;;;;;5050149;28;1445;-74
2022/06/27 06:36:16;;;;;;;;;;;;;;;;;;5046804;28;1411;-75
2022/06/27 06:38:42;;;;;;;;;;;;;;;;;;5050873;28;1390;-75
2022/06/27 06:41:09;;;;;;;;;;;;;;;;;;5051644;28;1582;-75
2022/06/27 06:43:36;;;;;;;;;;;;;;;;;;5048511;28;1671;-75
2022/06/27 06:46:24;;;;;;;;;;;;;;;;;;5061129;28;1918;-74
2022/06/27 06:49:06;;;;;;;;;;;;;;;;;;5045614;28;1524;-76
2022/06/27 06:51:39;;;;;;;;;;;;;;;;;;5052751;28;1594;-76
2022/06/27 06:54:06;;;;;;;;;;;;;;;;;;5047782;28;1425;-76
2022/06/27 06:56:32;;;;;;;;;;;;;;;;;;5064967;28;1439;-76
2022/06/27 06:58:58;;;;;;;;;;;;;;;;;;5068422;28;1423;-75
2022/06/27 07:01:25;;;;;;;;;;;;;;;;;;5066881;28;987;-75
2022/06/27 07:03:51;;;;;;;;;;;;;;;;;;5050417;28;1356;-73
2022/06/27 07:06:21;;;;;;;;;;;;;;;;;;5050511;28;1965;-74
2022/06/27 07:08:49;;;;;;;;;;;;;;;;;;5049087;28;1430;-74
2022/06/27 07:11:15;;;;;;;;;;;;;;;;;;5038227;28;1544;-74
2022/06/27 07:13:42;;;;;;;;;;;;;;;;;;5068653;28;1371;-74
2022/06/27 07:16:08;;;;;;;;;;;;;;;;;;5052293;28;1386;-73
2022/06/27 07:18:35;;;;;;;;;;;;;;;;;;5069920;28;1529;-74
2022/06/27 07:21:02;;;;;;;;;;;;;;;;;;5053748;28;1489;-74
2022/06/27 07:23:28;;;;;;;;;;;;;;;;;;5072168;28;1300;-75
2022/06/27 07:25:56;;;;;;;;;;;;;;;;;;5072177;28;1922;-74
2022/06/27 07:28:26;;;;;;;;;;;;;;;;;;5064418;28;1318;-74
2022/06/27 07:30:53;;;;;;;;;;;;;;;;;;5072541;28;945;-74
2022/06/27 07:33:19;;;;;;;;;;;;;;;;;;5054215;28;1479;-75
2022/06/27 07:35:46;;;;;;;;;;;;;;;;;;5051054;28;1453;-74
2022/06/27 07:38:12;;;;;;;;;;;;;;;;;;5044524;28;1349;-74
2022/06/27 07:40:39;;;;;;;;;;;;;;;;;;5063111;28;1348;-74
2022/06/27 07:43:09;;;;;;;;;;;;;;;;;;5052924;28;1225;-75
2022/06/27 07:45:38;;;;;;;;;;;;;;;;;;5050671;28;1407;-74
2022/06/27 07:48:05;;;;;;;;;;;;;;;;;;5044498;28;1996;-74
2022/06/27 07:50:38;;;;;;;;;;;;;;;;;;5072258;28;1059;-74
2022/06/27 07:53:13;;;;;;;;;;;;;;;;;;5067877;28;1494;-74
2022/06/27 07:55:40;;;;;;;;;;;;;;;;;;5047841;28;1410;-75
2022/06/27 07:58:08;;;;;;;;;;;;;;;;;;5049939;28;1483;-74
2022/06/27 08:00:34;;;;;;;;;;;;;;;;;;5073487;28;1474;-73
2022/06/27 08:03:36;;;;;;;;;;;;;;;;;;5050386;28;1493;-73
2022/06/27 08:05:47;;;;;;;;;;;;;;;;;;5071560;28;1202;-74
2022/06/27 08:08:13;;;;;;;;;;;;;;;;;;5052269;28;1942;-74
2022/06/27 08:10:40;;;;;;;;;;;;;;;;;;5052415;28;1375;-74
2022/06/27 08:13:08;;;;;;;;;;;;;;;;;;5069441;28;1435;-73
2022/06/27 08:15:35;;;;;;;;;;;;;;;;;;5071643;28;1501;-74
2022/06/27 08:18:02;;;;;;;;;;;;;;;;;;5052215;28;1465;-73
2022/06/27 08:20:28;;;;;;;;;;;;;;;;;;5064641;28;1588;-73
2022/06/27 08:22:54;;;;;;;;;;;;;;;;;;5067897;28;1442;-74
2022/06/27 08:25:20;;;;;;;;;;;;;;;;;;5071028;28;1217;-74
2022/06/27 08:27:48;;;;;;;;;;;;;;;;;;5039035;28;1977;-74
2022/06/27 08:30:15;;;;;;;;;;;;;;;;;;5052928;28;1190;-74
2022/06/27 08:32:42;;;;;;;;;;;;;;;;;;5044508;28;1395;-73
2022/06/27 08:35:09;;;;;;;;;;;;;;;;;;5070537;28;1170;-73
2022/06/27 08:37:35;;;;;;;;;;;;;;;;;;5052075;28;1333;-73
2022/06/27 08:40:04;;;;;;;;;;;;;;;;;;5053934;28;1321;-73
2022/06/27 08:42:30;;;;;;;;;;;;;;;;;;5070318;28;1272;-73
2022/06/27 08:44:57;;;;;;;;;;;;;;;;;;5060197;28;1375;-72
2022/06/27 08:47:24;;;;;;;;;;;;;;;;;;5069291;28;1910;-73
2022/06/27 08:49:52;;;;;;;;;;;;;;;;;;5070484;28;1316;-73
2022/06/27 08:52:18;;;;;;;;;;;;;;;;;;5060302;28;1500;-74
2022/06/27 08:54:45;;;;;;;;;;;;;;;;;;5070535;28;889;-73
2022/06/27 08:57:12;;;;;;;;;;;;;;;;;;5051789;28;1334;-74
2022/06/27 08:59:38;;;;;;;;;;;;;;;;;;5070736;28;1060;-74
2022/06/27 09:02:05;;;;;;;;;;;;;;;;;;5070412;28;981;-74
2022/06/27 09:04:32;;;;;;;;;;;;;;;;;;5052696;28;1379;-74
2022/06/27 09:06:59;;;;;;;;;;;;;;;;;;5069362;28;1925;-74
2022/06/27 09:09:27;;;;;;;;;;;;;;;;;;5069634;28;1111;-74
2022/06/27 09:11:54;;;;;;;;;;;;;;;;;;5052046;28;1179;-74
2022/06/27 09:14:34;;;;;;;;;;;;;;;;;;5070652;28;777;-74
2022/06/27 09:17:02;;;;;;;;;;;;;;;;;;5065528;28;1998;-74
2022/06/27 09:19:43;;;;;;;;;;;;;;;;;;5069914;28;1161;-74
2022/06/27 09:22:12;;;;;;;;;;;;;;;;;;5069822;28;1186;-74
2022/06/27 09:24:39;;;;;;;;;;;;;;;;;;5069362;28;790;-73
2022/06/27 09:27:06;;;;;;;;;;;;;;;;;;5068951;28;1909;-74
2022/06/27 09:29:32;;;;;;;;;;;;;;;;;;5069826;28;1110;-73
2022/06/27 09:31:59;;;;;;;;;;;;;;;;;;5069700;28;1055;-72
2022/06/27 09:34:25;;;;;;;;;;;;;;;;;;5068676;28;1335;-73
2022/06/27 09:36:52;;;;;;;;;;;;;;;;;;5069055;28;1337;-73
2022/06/27 09:39:21;;;;;;;;;;;;;;;;;;5069104;28;1071;-73
2022/06/27 09:41:58;;;;;;;;;;;;;;;;;;5051842;28;1223;-72
2022/06/27 09:44:25;;;;;;;;;;;;;;;;;;5069839;28;1107;-72
2022/06/27 09:47:05;;;;;;;;;;;;;;;;;;5068727;28;1981;-73
2022/06/27 09:49:32;;;;;;;;;;;;;;;;;;5069497;28;1189;-71
2022/06/27 09:51:58;;;;;;;;;;;;;;;;;;5069294;28;1094;-71
2022/06/27 09:54:26;;;;;;;;;;;;;;;;;;5069732;28;1029;-74
2022/06/27 09:56:52;;;;;;;;;;;;;;;;;;5068575;28;1323;-71
2022/06/27 09:59:19;;;;;;;;;;;;;;;;;;5069069;28;1087;-72
2022/06/27 10:01:45;;;;;;;;;;;;;;;;;;5069458;28;743;-73
2022/06/27 10:04:12;;;;;;;;;;;;;;;;;;5079635;28;1451;-73
2022/06/27 10:06:39;;;;;;;;;;;;;;;;;;5074232;28;1931;-73
2022/06/27 10:09:08;;;;;;;;;;;;;;;;;;5068772;28;1040;-74
2022/06/27 10:11:36;;;;;;;;;;;;;;;;;;5068074;28;1059;-74
2022/06/27 10:14:12;;;;;;;;;;;;;;;;;;5050724;28;1111;-73
2022/06/27 10:16:48;;;;;;;;;;;;;;;;;;5068868;28;1407;-74
2022/06/27 10:19:14;;;;;;;;;;;;;;;;;;5068202;28;1051;-74
2022/06/27 10:21:41;;;;;;;;;;;;;;;;;;5051268;28;1334;-74
2022/06/27 10:24:26;;;;;;;;;;;;;;;;;;5067879;28;1383;-74
2022/06/27 10:26:54;;;;;;;;;;;;;;;;;;5065335;28;1906;-74
2022/06/27 10:29:30;;;;;;;;;;;;;;;;;;5068286;28;1378;-74
2022/06/27 10:31:57;;;;;;;;;;;;;;;;;;5068061;28;1421;-74
2022/06/27 10:34:33;;;;;;;;;;;;;;;;;;5069062;28;1104;-73
2022/06/27 10:37:14;;;;;;;;;;;;;;;;;;5039467;28;1481;-74
2022/06/27 10:39:40;;;;;;;;;;;;;;;;;;5063541;28;1319;-74
2022/06/27 10:42:07;;;;;;;;;;;;;;;;;;5059441;28;1362;-74
2022/06/27 10:44:35;;;;;;;;;;;;;;;;;;5067887;28;1398;-74
2022/06/27 10:47:01;;;;;;;;;;;;;;;;;;5069999;28;1942;-74
2022/06/27 10:49:28;;;;;;;;;;;;;;;;;;5072916;28;1106;-74
2022/06/27 10:52:09;;;;;;;;;;;;;;;;;;5072397;28;1159;-73
2022/06/27 10:54:39;;;;;;;;;;;;;;;;;;5072882;28;1431;-73
2022/06/27 10:57:05;;;;;;;;;;;;;;;;;;5070791;28;1393;-73
2022/06/27 10:59:59;;;;;;;;;;;;;;;;;;5065756;28;1489;-73
2022/06/27 11:02:29;;;;;;;;;;;;;;;;;;5065112;28;1181;-73
2022/06/27 11:04:56;;;;;;;;;;;;;;;;;;5072193;28;1398;-73
2022/06/27 11:07:23;;;;;;;;;;;;;;;;;;5071279;28;1949;-73
2022/06/27 11:09:49;;;;;;;;;;;;;;;;;;5062537;28;1442;-75
2022/06/27 11:12:15;;;;;;;;;;;;;;;;;;5071573;28;1122;-73
2022/06/27 11:14:46;;;;;;;;;;;;;;;;;;5051912;28;1414;-73
2022/06/27 11:17:42;;;;;;;;;;;;;;;;;;5070123;28;1451;-73
2022/06/27 11:20:12;;;;;;;;;;;;;;;;;;5009113;28;1163;-74
2022/06/27 11:22:38;;;;;;;;;;;;;;;;;;5038275;28;1632;-73
2022/06/27 11:25:04;;;;;;;;;;;;;;;;;;5053607;28;1325;-74
2022/06/27 11:27:43;;;;;;;;;;;;;;;;;;5053834;28;1938;-74
2022/06/27 11:32:53;;;;;;;;;;;;;;;;;;5071989;28;977;-74
2022/06/27 11:35:21;;;;;;;;;;;;;;;;;;5070959;28;1431;-74
2022/06/27 11:37:47;;;;;;;;;;;;;;;;;;5061980;28;1415;-74
2022/06/27 11:40:13;;;;;;;;;;;;;;;;;;5059667;28;1355;-73
2022/06/27 11:42:41;;;;;;;;;;;;;;;;;;5065557;28;1421;-74
2022/06/27 11:45:09;;;;;;;;;;;;;;;;;;5069289;28;1426;-75
2022/06/27 11:47:35;;;;;;;;;;;;;;;;;;5070288;28;1891;-74
2022/06/27 11:50:02;;;;;;;;;;;;;;;;;;5045542;28;1683;-75
2022/06/27 11:52:36;;;;;;;;;;;;;;;;;;5072312;28;961;-74
2022/06/27 11:55:06;;;;;;;;;;;;;;;;;;5071586;28;1391;-73
2022/06/27 11:57:32;;;;;;;;;;;;;;;;;;5065280;28;1330;-73
2022/06/27 12:00:00;;;;;;;;;;;;;;;;;;5071416;28;1162;-73
2022/06/27 12:02:27;;;;;;;;;;;;;;;;;;5071368;28;889;-75
2022/06/27 12:05:02;;;;;;;;;;;;;;;;;;5069639;28;1438;-74
2022/06/27 12:07:28;;;;;;;;;;;;;;;;;;5064695;28;1882;-73
2022/06/27 12:09:55;;;;;;;;;;;;;;;;;;5061494;28;1408;-74
2022/06/27 12:12:23;;;;;;;;;;;;;;;;;;5061445;28;1407;-74
2022/06/27 12:14:50;;;;;;;;;;;;;;;;;;5053751;28;1232;-74
2022/06/27 12:17:16;;;;;;;;;;;;;;;;;;5070584;28;1337;-74
2022/06/27 12:19:43;;;;;;;;;;;;;;;;;;5053073;28;1372;-74
2022/06/27 12:22:09;;;;;;;;;;;;;;;;;;5062224;28;1434;-74
2022/06/27 12:24:36;;;;;;;;;;;;;;;;;;5062538;28;1387;-74
2022/06/27 12:27:03;;;;;;;;;;;;;;;;;;5061605;28;1903;-74
2022/06/27 12:29:30;;;;;;;;;;;;;;;;;;5070889;28;1960;-74
2022/06/27 12:31:57;;;;;;;;;;;;;;;;;;5068640;28;1438;-74
2022/06/27 12:34:23;;;;;;;;;;;;;;;;;;5069815;28;1151;-74
2022/06/27 12:36:49;;;;;;;;;;;;;;;;;;5068944;28;1403;-75
2022/06/27 12:39:16;;;;;;;;;;;;;;;;;;5069863;28;1108;-74
2022/06/27 12:41:42;;;;;;;;;;;;;;;;;;5071084;28;767;-74
2022/06/27 12:44:09;;;;;;;;;;;;;;;;;;5070956;28;799;-74
2022/06/27 12:46:36;;;;;;;;;;;;;;;;;;5070310;28;948;-74
2022/06/27 12:49:02;;;;;;;;;;;;;;;;;;5068956;28;1914;-74
2022/06/27 12:51:29;;;;;;;;;;;;;;;;;;5070632;28;1237;-74
2022/06/27 12:53:56;;;;;;;;;;;;;;;;;;5084085;22;4022;-77
2022/06/27 12:56:22;;;;;;;;;;;;;;;;;;5088105;28;1751;-78
2022/06/27 12:58:49;;;;;;;;;;;;;;;;;;5073901;28;1357;-78
2022/06/27 13:01:16;;;;;;;;;;;;;;;;;;5091538;28;1386;-78
2022/06/27 13:03:43;;;;;;;;;;;;;;;;;;5076724;28;1535;-80
2022/06/27 13:06:09;;;;;;;;;;;;;;;;;;5075510;28;1369;-78
2022/06/27 13:08:36;;;;;;;;;;;;;;;;;;5081733;28;1918;-78
2022/06/27 13:11:02;;;;;;;;;;;;;;;;;;5102076;28;1202;-78
2022/06/27 13:13:28;;;;;;;;;;;;;;;;;;5093526;28;1433;-80
2022/06/27 13:15:54;;;;;;;;;;;;;;;;;;5072506;28;1511;-79
2022/06/27 13:18:22;;;;;;;;;;;;;;;;;;5083125;28;1096;-77
2022/06/27 13:20:48;;;;;;;;;;;;;;;;;;5095148;28;984;-80
2022/06/27 13:23:14;;;;;;;;;;;;;;;;;;5095525;28;1106;-80
2022/06/27 13:25:41;;;;;;;;;;;;;;;;;;5076387;28;1424;-79
2022/06/27 13:28:07;;;;;;;;;;;;;;;;;;5076246;28;1912;-80
2022/06/27 13:30:34;;;;;;;;;;;;;;;;;;5094463;28;1437;-79
2022/06/27 13:33:00;;;;;;;;;;;;;;;;;;5089536;28;1389;-80
2022/06/27 13:35:28;;;;;;;;;;;;;;;;;;5095021;28;1493;-80
2022/06/27 13:37:54;;;;;;;;;;;;;;;;;;5069293;28;1441;-79
2022/06/27 13:40:20;;;;;;;;;;;;;;;;;;5078282;28;1231;-79
2022/06/27 13:42:47;;;;;;;;;;;;;;;;;;5076677;28;1235;-80
2022/06/27 13:45:13;;;;;;;;;;;;;;;;;;5077426;28;1409;-80
2022/06/27 13:47:39;;;;;;;;;;;;;;;;;;5093356;28;1891;-80
2022/06/27 13:50:06;;;;;;;;;;;;;;;;;;5095248;28;1540;-80
2022/06/27 13:52:34;;;;;;;;;;;;;;;;;;5080885;28;1484;-79
2022/06/27 13:55:01;;;;;;;;;;;;;;;;;;5080388;28;1407;-79
2022/06/27 13:57:27;;;;;;;;;;;;;;;;;;5075485;28;1294;-79
2022/06/27 13:59:54;;;;;;;;;;;;;;;;;;5076337;28;1132;-79
2022/06/27 14:02:21;;;;;;;;;;;;;;;;;;5090191;28;1479;-79
2022/06/27 14:04:47;;;;;;;;;;;;;;;;;;5093167;28;1423;-79
2022/06/27 14:09:58;;;;;;;;;;;;;;;;;;5076892;28;1926;-80
2022/06/27 14:12:24;;;;;;;;;;;;;;;;;;5088015;28;1388;-80
2022/06/27 14:14:51;;;;;;;;;;;;;;;;;;5089141;28;1422;-79
2022/06/27 14:17:17;;;;;;;;;;;;;;;;;;5086198;28;1204;-81
2022/06/27 14:19:43;;;;;;;;;;;;;;;;;;5095295;28;1346;-80
2022/06/27 14:22:09;;;;;;;;;;;;;;;;;;5099274;28;1378;-80
2022/06/27 14:24:35;;;;;;;;;;;;;;;;;;5104930;28;1499;-81
2022/06/27 14:27:03;;;;;;;;;;;;;;;;;;5100644;28;1235;-79
2022/06/27 14:29:29;;;;;;;;;;;;;;;;;;5077112;28;1960;-79
2022/06/27 14:31:56;;;;;;;;;;;;;;;;;;5099841;28;1074;-80
2022/06/27 14:34:22;;;;;;;;;;;;;;;;;;5096921;28;1502;-80
2022/06/27 14:36:48;;;;;;;;;;;;;;;;;;5094697;28;1401;-80
2022/06/27 14:39:15;;;;;;;;;;;;;;;;;;5096126;28;1115;-82
2022/06/27 14:41:41;;;;;;;;;;;;;;;;;;5099514;28;1134;-81
2022/06/27 14:44:09;;;;;;;;;;;;;;;;;;5086095;28;1505;-81
2022/06/27 14:46:35;;;;;;;;;;;;;;;;;;5094108;28;917;-81
2022/06/27 14:49:01;;;;;;;;;;;;;;;;;;5073888;28;1898;-81
2022/06/27 14:51:28;;;;;;;;;;;;;;;;;;5087353;28;1334;-81
2022/06/27 14:53:54;;;;;;;;;;;;;;;;;;5068158;28;1395;-81
2022/06/27 14:56:20;;;;;;;;;;;;;;;;;;5093974;28;1134;-81
2022/06/27 14:58:47;;;;;;;;;;;;;;;;;;5094868;28;1095;-80
2022/06/27 15:01:14;;;;;;;;;;;;;;;;;;5089415;28;1431;-80
2022/06/27 15:03:40;;;;;;;;;;;;;;;;;;5090896;28;1197;-81
2022/06/27 15:06:07;;;;;;;;;;;;;;;;;;5095799;28;1290;-81
2022/06/27 15:08:35;;;;;;;;;;;;;;;;;;5092677;28;1922;-81
2022/06/27 15:13:46;;;;;;;;;;;;;;;;;;5077252;28;1178;-82
2022/06/27 15:16:12;;;;;;;;;;;;;;;;;;5080029;28;2002;-81
2022/06/27 15:18:39;;;;;;;;;;;;;;;;;;5093192;28;1414;-82
2022/06/27 15:21:06;;;;;;;;;;;;;;;;;;5092461;28;1531;-81
2022/06/27 15:23:32;;;;;;;;;;;;;;;;;;5078179;28;1039;-81
2022/06/27 15:25:58;;;;;;;;;;;;;;;;;;5060541;28;1363;-82
2022/06/27 15:28:24;;;;;;;;;;;;;;;;;;5093042;28;1971;-81
2022/06/27 15:30:50;;;;;;;;;;;;;;;;;;5089729;28;1282;-81
2022/06/27 15:33:17;;;;;;;;;;;;;;;;;;5078831;28;1274;-81
2022/06/27 15:35:44;;;;;;;;;;;;;;;;;;5086441;28;1388;-81
2022/06/27 15:38:10;;;;;;;;;;;;;;;;;;5094711;28;1310;-81
2022/06/27 15:40:37;;;;;;;;;;;;;;;;;;5075303;28;1380;-82
2022/06/27 15:43:03;;;;;;;;;;;;;;;;;;5096806;28;1302;-82
2022/06/27 15:45:30;;;;;;;;;;;;;;;;;;5078478;28;1364;-82
2022/06/27 15:47:56;;;;;;;;;;;;;;;;;;5093415;28;1105;-82
2022/06/27 15:50:22;;;;;;;;;;;;;;;;;;5092099;28;1914;-80
2022/06/27 15:52:50;;;;;;;;;;;;;;;;;;5093678;28;1384;-82
2022/06/27 15:55:17;;;;;;;;;;;;;;;;;;5095001;28;1489;-80
2022/06/27 15:57:43;;;;;;;;;;;;;;;;;;5090144;28;1357;-82
2022/06/27 16:00:12;;;;;;;;;;;;;;;;;;5091113;28;1406;-82
2022/06/27 16:02:38;;;;;;;;;;;;;;;;;;5088618;28;1016;-81
2022/06/27 16:05:05;;;;;;;;;;;;;;;;;;5095088;28;1393;-82
2022/06/27 16:07:31;;;;;;;;;;;;;;;;;;5092791;28;1110;-81
2022/06/27 16:09:59;;;;;;;;;;;;;;;;;;5094611;28;1954;-82
2022/06/27 16:12:25;;;;;;;;;;;;;;;;;;5076113;28;1276;-82
2022/06/27 16:14:51;;;;;;;;;;;;;;;;;;5095597;28;1324;-82
2022/06/27 16:17:17;;;;;;;;;;;;;;;;;;5076560;28;1223;-81
2022/06/27 16:19:44;;;;;;;;;;;;;;;;;;5076981;28;1196;-82
2022/06/27 16:22:10;;;;;;;;;;;;;;;;;;5094285;28;1119;-82
2022/06/27 16:24:36;;;;;;;;;;;;;;;;;;5094997;28;1400;-82
2022/06/27 16:27:04;;;;;;;;;;;;;;;;;;5095237;28;1071;-81
2022/06/27 16:29:30;;;;;;;;;;;;;;;;;;5096195;28;1910;-81
2022/06/27 16:31:56;;;;;;;;;;;;;;;;;;5096514;28;885;-81
2022/06/27 16:34:22;;;;;;;;;;;;;;;;;;5078516;28;1424;-80
2022/06/27 16:36:50;;;;;;;;;;;;;;;;;;5095591;28;1030;-80
2022/06/27 16:39:16;;;;;;;;;;;;;;;;;;5095638;28;1063;-80
2022/06/27 16:44:28;;;;;;;;;;;;;;;;;;5093825;28;1336;-81
2022/06/27 16:46:54;;;;;;;;;;;;;;;;;;5075850;28;1188;-80
2022/06/27 16:49:21;;;;;;;;;;;;;;;;;;5095548;28;1910;-79
2022/06/27 16:51:47;;;;;;;;;;;;;;;;;;5093901;28;853;-80
2022/06/27 16:54:13;;;;;;;;;;;;;;;;;;5065103;28;1460;-80
2022/06/27 16:56:40;;;;;;;;;;;;;;;;;;5040984;28;1170;-80
2022/06/27 16:59:07;;;;;;;;;;;;;;;;;;5027186;28;1417;-80
2022/06/27 17:01:34;;;;;;;;;;;;;;;;;;5031120;28;975;-80
2022/06/27 17:04:01;;;;;;;;;;;;;;;;;;5030339;28;1293;-80
2022/06/27 17:06:27;;;;;;;;;;;;;;;;;;5027868;28;957;-79
2022/06/27 17:08:54;;;;;;;;;;;;;;;;;;5026526;28;1934;-81
2022/06/27 17:11:20;;;;;;;;;;;;;;;;;;5031097;28;861;-84
2022/06/27 17:13:47;;;;;;;;;;;;;;;;;;5034407;28;912;-81
2022/06/27 17:16:13;;;;;;;;;;;;;;;;;;5027576;28;1411;-80
2022/06/27 17:18:42;;;;;;;;;;;;;;;;;;5028144;28;2004;-80
2022/06/27 17:21:09;;;;;;;;;;;;;;;;;;5028203;28;1027;-77
2022/06/27 17:23:36;;;;;;;;;;;;;;;;;;5036343;28;1060;-81
2022/06/27 17:26:03;;;;;;;;;;;;;;;;;;5022825;28;1329;-79